createdAt,value
2022-12-12T00:01:30.987Z,0.80
2022-12-12T00:04:01.316Z,0.70
2022-12-12T00:06:29.816Z,0.70
2022-12-12T00:08:58.438Z,0.70
2022-12-12T00:11:28.452Z,0.70
2022-12-12T00:13:57.024Z,0.70
2022-12-12T00:16:26.179Z,0.70
2022-12-12T00:18:54.907Z,0.70
2022-12-12T00:21:26.430Z,0.60
2022-12-12T00:23:55.717Z,0.60
2022-12-12T00:26:26.273Z,0.60
2022-12-12T00:28:55.073Z,0.60
2022-12-12T00:31:23.681Z,0.60
2022-12-12T00:33:52.349Z,0.60
2022-12-12T00:36:23.816Z,0.60
2022-12-12T00:38:54.804Z,0.60
2022-12-12T00:41:23.834Z,0.60
2022-12-12T00:43:52.280Z,0.60
2022-12-12T00:46:23.491Z,0.60
2022-12-12T00:48:54.693Z,0.60
2022-12-12T00:51:25.093Z,0.60
2022-12-12T00:53:55.160Z,0.60
2022-12-12T00:56:25.364Z,0.60
2022-12-12T00:58:54.109Z,0.50
2022-12-12T01:01:25.238Z,0.50
2022-12-12T01:03:55.014Z,0.40
2022-12-12T01:06:23.732Z,0.30
2022-12-12T01:08:52.515Z,0.30
2022-12-12T01:11:23.168Z,0.20
2022-12-12T01:13:53.407Z,0.20
2022-12-12T01:16:22.855Z,0.20
2022-12-12T01:18:51.828Z,0.10
2022-12-12T01:21:21.083Z,0.10
2022-12-12T01:23:49.683Z,0.10
2022-12-12T01:26:20.988Z,0.00
2022-12-12T01:28:51.861Z,0.00
2022-12-12T01:31:20.278Z,-0.10
2022-12-12T01:33:48.801Z,-0.10
2022-12-12T01:36:19.584Z,-0.20
2022-12-12T01:38:49.217Z,-0.30
2022-12-12T01:41:19.009Z,-0.30
2022-12-12T01:43:47.870Z,-0.30
2022-12-12T01:46:43.883Z,-0.40
2022-12-12T01:49:21.929Z,-0.40
2022-12-12T01:51:54.171Z,-0.40
2022-12-12T01:54:27.437Z,-0.30
2022-12-12T01:56:57.753Z,-0.30
2022-12-12T01:59:27.878Z,-0.30
2022-12-12T02:01:58.013Z,-0.20
2022-12-12T02:04:29.330Z,-0.20
2022-12-12T02:06:58.968Z,-0.10
2022-12-12T02:09:28.085Z,-0.10
2022-12-12T02:11:58.694Z,-0.10
2022-12-12T02:14:30.802Z,-0.10
2022-12-12T02:17:37.001Z,-0.10
2022-12-12T02:20:40.986Z,-0.10
2022-12-12T02:23:46.664Z,-0.10
2022-12-12T02:26:50.269Z,-0.20
2022-12-12T02:30:09.357Z,-0.20
2022-12-12T02:33:11.548Z,-0.30
2022-12-12T02:35:51.484Z,-0.30
2022-12-12T02:38:29.056Z,-0.30
2022-12-12T02:41:09.623Z,-0.30
2022-12-12T02:43:44.936Z,-0.40
2022-12-12T02:46:21.808Z,-0.30
2022-12-12T02:48:57.759Z,-0.30
2022-12-12T02:51:27.753Z,-0.40
2022-12-12T02:53:56.137Z,-0.40
2022-12-12T02:56:44.551Z,-0.40
2022-12-12T02:59:17.636Z,-0.40
2022-12-12T03:02:07.123Z,-0.40
2022-12-12T03:05:07.911Z,-0.50
2022-12-12T03:07:52.364Z,-0.40
2022-12-12T03:10:33.059Z,-0.40
2022-12-12T03:13:09.523Z,-0.50
2022-12-12T03:15:45.506Z,-0.60
2022-12-12T03:18:25.884Z,-0.70
2022-12-12T03:21:03.273Z,-0.70
2022-12-12T03:23:38.202Z,-0.90
2022-12-12T03:26:10.997Z,-1.00
2022-12-12T03:28:42.386Z,-1.10
2022-12-12T03:31:13.309Z,-1.10
2022-12-12T03:33:45.842Z,-1.20
2022-12-12T03:36:19.919Z,-1.30
2022-12-12T03:38:57.165Z,-1.20
2022-12-12T03:41:31.562Z,-1.20
2022-12-12T03:44:04.075Z,-1.20
2022-12-12T03:46:36.890Z,-1.30
2022-12-12T03:49:14.729Z,-1.20
2022-12-12T03:51:51.260Z,-1.10
2022-12-12T03:54:25.998Z,-1.10
2022-12-12T03:57:01.904Z,-1.10
2022-12-12T03:59:34.156Z,-1.20
2022-12-12T04:02:13.001Z,-1.20
2022-12-12T04:04:49.473Z,-1.20
2022-12-12T04:07:23.744Z,-1.20
2022-12-12T04:10:09.971Z,-1.20
2022-12-12T04:13:00.580Z,-1.10
2022-12-12T04:15:47.775Z,-1.10
2022-12-12T04:18:22.218Z,-1.20
2022-12-12T04:21:21.559Z,-1.20
2022-12-12T04:24:01.070Z,-1.20
2022-12-12T04:26:42.040Z,-1.10
2022-12-12T04:29:35.682Z,-1.20
2022-12-12T04:32:13.701Z,-1.30
2022-12-12T04:34:45.227Z,-1.40
2022-12-12T04:37:15.982Z,-1.50
2022-12-12T04:39:50.654Z,-1.40
2022-12-12T04:42:23.700Z,-1.40
2022-12-12T04:44:55.892Z,-1.50
2022-12-12T04:47:25.163Z,-1.40
2022-12-12T04:49:55.610Z,-1.40
2022-12-12T04:52:25.002Z,-1.30
2022-12-12T04:55:01.180Z,-1.40
2022-12-12T04:57:35.187Z,-1.40
2022-12-12T05:00:03.638Z,-1.50
2022-12-12T05:02:39.108Z,-1.40
2022-12-12T05:05:12.584Z,-1.40
2022-12-12T05:07:44.046Z,-1.40
2022-12-12T05:10:16.550Z,-1.40
2022-12-12T05:12:46.799Z,-1.40
2022-12-12T05:15:16.429Z,-1.40
2022-12-12T05:17:47.592Z,-1.40
2022-12-12T05:20:16.885Z,-1.40
2022-12-12T05:22:45.305Z,-1.40
2022-12-12T05:25:15.283Z,-1.40
2022-12-12T05:27:43.859Z,-1.40
2022-12-12T05:30:13.749Z,-1.40
2022-12-12T05:32:42.227Z,-1.40
2022-12-12T05:35:12.069Z,-1.50
2022-12-12T05:37:40.937Z,-1.60
2022-12-12T05:40:10.709Z,-1.60
2022-12-12T05:42:40.962Z,-1.70
2022-12-12T05:45:10.858Z,-1.80
2022-12-12T05:47:39.582Z,-1.70
2022-12-12T05:50:08.849Z,-1.70
2022-12-12T05:52:37.293Z,-1.70
2022-12-12T05:55:06.763Z,-1.70
2022-12-12T05:57:36.127Z,-1.70
2022-12-12T06:00:07.422Z,-1.70
2022-12-12T06:02:35.819Z,-1.80
2022-12-12T06:05:04.807Z,-1.80
2022-12-12T06:07:33.204Z,-1.90
2022-12-12T06:10:01.597Z,-1.90
2022-12-12T06:12:30.058Z,-1.90
2022-12-12T06:14:58.316Z,-2.00
2022-12-12T06:17:32.975Z,-2.00
2022-12-12T06:20:01.917Z,-2.00
2022-12-12T06:22:30.356Z,-2.00
2022-12-12T06:24:58.696Z,-2.10
2022-12-12T06:27:27.491Z,-2.00
2022-12-12T06:29:55.906Z,-2.00
2022-12-12T06:32:24.295Z,-2.10
2022-12-12T06:34:54.001Z,-2.10
2022-12-12T06:37:22.445Z,-2.10
2022-12-12T06:39:50.843Z,-2.10
2022-12-12T06:42:19.263Z,-2.10
2022-12-12T06:44:48.336Z,-2.00
2022-12-12T06:47:16.875Z,-2.10
2022-12-12T06:49:45.217Z,-2.00
2022-12-12T06:52:15.230Z,-2.00
2022-12-12T06:54:43.644Z,-2.00
2022-12-12T06:57:12.183Z,-1.90
2022-12-12T06:59:40.783Z,-2.00
2022-12-12T07:02:12.230Z,-2.00
2022-12-12T07:04:40.661Z,-1.90
2022-12-12T07:07:09.018Z,-1.80
2022-12-12T07:09:38.850Z,-1.80
2022-12-12T07:12:07.282Z,-1.80
2022-12-12T07:14:35.709Z,-1.80
2022-12-12T07:17:04.142Z,-1.90
2022-12-12T07:19:32.473Z,-1.90
2022-12-12T07:22:07.531Z,-2.00
2022-12-12T07:24:39.642Z,-2.10
2022-12-12T07:27:08.144Z,-2.20
2022-12-12T07:29:36.691Z,-2.30
2022-12-12T07:32:05.248Z,-2.40
2022-12-12T07:34:34.040Z,-2.40
2022-12-12T07:37:03.473Z,-2.40
2022-12-12T07:39:32.436Z,-2.50
2022-12-12T07:42:02.216Z,-2.60
2022-12-12T07:44:30.602Z,-2.50
2022-12-12T07:46:59.279Z,-2.50
2022-12-12T07:49:29.225Z,-2.50
2022-12-12T07:51:57.750Z,-2.50
2022-12-12T07:54:26.178Z,-2.50
2022-12-12T07:56:54.607Z,-2.60
2022-12-12T07:59:24.496Z,-2.60
2022-12-12T08:01:52.904Z,-2.50
2022-12-12T08:04:21.431Z,-2.50
2022-12-12T08:06:54.034Z,-2.40
2022-12-12T08:09:26.547Z,-2.50
2022-12-12T08:11:57.048Z,-2.50
2022-12-12T08:14:27.637Z,-2.50
2022-12-12T08:16:56.292Z,-2.60
2022-12-12T08:19:24.746Z,-2.60
2022-12-12T08:21:53.141Z,-2.60
2022-12-12T08:24:21.933Z,-2.50
2022-12-12T08:26:51.403Z,-2.30
2022-12-12T08:29:19.793Z,-2.20
2022-12-12T08:31:50.132Z,-2.10
2022-12-12T08:34:18.603Z,-2.10
2022-12-12T08:36:47.525Z,-2.10
2022-12-12T08:39:17.254Z,-2.00
2022-12-12T08:41:48.075Z,-2.00
2022-12-12T08:44:18.074Z,-1.90
2022-12-12T08:46:46.451Z,-1.90
2022-12-12T08:49:16.381Z,-1.80
2022-12-12T08:51:44.825Z,-1.80
2022-12-12T08:54:14.223Z,-1.80
2022-12-12T08:56:42.920Z,-1.80
2022-12-12T08:59:11.276Z,-1.80
2022-12-12T09:01:40.163Z,-1.70
2022-12-12T09:04:08.648Z,-1.70
2022-12-12T09:06:38.416Z,-1.70
2022-12-12T09:09:06.668Z,-1.60
2022-12-12T09:11:35.018Z,-1.60
2022-12-12T09:14:03.340Z,-1.60
2022-12-12T09:16:31.712Z,-1.40
2022-12-12T09:19:00.131Z,-1.40
2022-12-12T09:21:28.571Z,-1.30
2022-12-12T09:23:58.631Z,-1.20
2022-12-12T09:26:26.944Z,-1.00
2022-12-12T09:28:55.416Z,-0.80
2022-12-12T09:31:23.764Z,-0.50
2022-12-12T09:33:52.400Z,-0.40
2022-12-12T09:36:21.105Z,-0.20
2022-12-12T09:38:49.567Z,-0.20
2022-12-12T09:41:21.663Z,-0.10
2022-12-12T09:43:56.010Z,-0.10
2022-12-12T09:46:32.734Z,-0.10
2022-12-12T09:49:08.984Z,0.00
2022-12-12T09:51:38.149Z,0.10
2022-12-12T09:54:07.357Z,0.10
2022-12-12T09:56:49.238Z,0.20
2022-12-12T09:59:24.291Z,0.30
2022-12-12T10:02:01.805Z,0.20
2022-12-12T10:04:39.046Z,0.30
2022-12-12T10:07:16.873Z,0.30
2022-12-12T10:10:00.817Z,0.40
2022-12-12T10:12:31.291Z,0.40
2022-12-12T10:15:02.711Z,0.60
2022-12-12T10:17:35.915Z,0.60
2022-12-12T10:20:09.371Z,0.70
2022-12-12T10:22:42.249Z,0.80
2022-12-12T10:25:21.047Z,0.90
2022-12-12T10:27:53.316Z,0.90
2022-12-12T10:30:22.221Z,0.90
2022-12-12T10:33:11.660Z,0.90
2022-12-12T10:35:46.708Z,0.90
2022-12-12T10:38:32.299Z,0.90
2022-12-12T10:41:08.284Z,0.90
2022-12-12T10:43:47.305Z,0.90
2022-12-12T10:46:29.317Z,1.10
2022-12-12T10:48:58.218Z,1.20
2022-12-12T10:51:29.027Z,1.30
2022-12-12T10:53:57.481Z,1.40
2022-12-12T10:56:31.480Z,1.40
2022-12-12T10:59:02.597Z,1.50
2022-12-12T11:02:07.793Z,1.60
2022-12-12T11:04:23.267Z,1.70
2022-12-12T11:06:54.954Z,1.90
2022-12-12T11:09:25.222Z,1.80
2022-12-12T11:12:00.586Z,1.90
2022-12-12T11:14:35.789Z,1.90
2022-12-12T11:17:07.434Z,1.90
2022-12-12T11:19:39.652Z,2.00
2022-12-12T11:22:08.195Z,2.20
2022-12-12T11:24:40.186Z,2.40
2022-12-12T11:27:09.127Z,2.50
2022-12-12T11:29:45.434Z,2.60
2022-12-12T11:32:15.763Z,2.70
2022-12-12T11:34:48.876Z,2.70
2022-12-12T11:37:19.659Z,3.00
2022-12-12T11:39:51.911Z,3.10
2022-12-12T11:42:23.537Z,3.10
2022-12-12T11:45:02.687Z,3.10
2022-12-12T11:47:38.637Z,3.10
2022-12-12T11:50:19.976Z,3.00
2022-12-12T11:52:49.770Z,3.10
2022-12-12T11:55:21.986Z,3.20
2022-12-12T11:58:03.981Z,3.40
2022-12-12T12:00:43.533Z,3.50
2022-12-12T12:03:32.529Z,3.60
2022-12-12T12:06:15.799Z,3.70
2022-12-12T12:08:59.398Z,3.80
2022-12-12T12:11:35.767Z,3.70
2022-12-12T12:14:28.585Z,3.80
2022-12-12T12:17:06.571Z,3.90
2022-12-12T12:19:52.194Z,4.00
2022-12-12T12:22:33.559Z,4.00
2022-12-12T12:25:25.339Z,4.00
2022-12-12T12:28:08.713Z,4.00
2022-12-12T12:30:46.630Z,4.10
2022-12-12T12:33:35.859Z,4.20
2022-12-12T12:36:19.287Z,4.50
2022-12-12T12:38:57.708Z,4.60
2022-12-12T12:41:59.499Z,4.50
2022-12-12T12:44:45.540Z,4.40
2022-12-12T12:47:26.373Z,4.50
2022-12-12T12:50:01.662Z,4.40
2022-12-12T12:52:35.674Z,4.60
2022-12-12T12:55:05.357Z,4.70
2022-12-12T12:57:39.281Z,4.80
2022-12-12T13:00:16.082Z,4.90
2022-12-12T13:02:52.023Z,4.90
2022-12-12T13:05:27.662Z,5.00
2022-12-12T13:08:02.374Z,5.00
2022-12-12T13:10:32.413Z,4.90
2022-12-12T13:13:07.385Z,4.90
2022-12-12T13:15:39.844Z,5.10
2022-12-12T13:18:13.602Z,5.20
2022-12-12T13:20:46.970Z,5.20
2022-12-12T13:23:48.092Z,5.30
2022-12-12T13:26:25.054Z,5.30
2022-12-12T13:28:59.631Z,5.20
2022-12-12T13:31:54.459Z,5.00
2022-12-12T13:34:25.401Z,5.20
2022-12-12T13:36:57.231Z,5.10
2022-12-12T13:39:30.931Z,5.10
2022-12-12T13:42:02.083Z,5.10
2022-12-12T13:44:36.893Z,5.10
2022-12-12T13:47:06.011Z,5.20
2022-12-12T13:49:45.407Z,5.10
2022-12-12T13:52:27.551Z,5.20
2022-12-12T13:55:21.219Z,5.00
2022-12-12T13:58:10.321Z,4.70
2022-12-12T14:00:39.424Z,4.30
2022-12-12T14:03:24.726Z,4.00
2022-12-12T14:05:54.616Z,4.00
2022-12-12T14:08:32.592Z,4.20
2022-12-12T14:11:03.114Z,4.30
2022-12-12T14:13:44.748Z,4.30
2022-12-12T14:16:27.871Z,4.20
2022-12-12T14:19:19.431Z,4.00
2022-12-12T14:21:49.092Z,3.90
2022-12-12T14:25:02.999Z,3.70
2022-12-12T14:28:14.021Z,3.40
2022-12-12T14:30:57.249Z,3.10
2022-12-12T14:33:58.279Z,2.80
2022-12-12T14:36:51.117Z,2.60
2022-12-12T14:39:31.856Z,2.30
2022-12-12T14:42:03.948Z,2.10
2022-12-12T14:44:38.057Z,1.90
2022-12-12T14:47:10.714Z,1.70
2022-12-12T14:49:39.190Z,1.60
2022-12-12T14:52:07.623Z,1.40
2022-12-12T14:54:37.746Z,1.20
2022-12-12T14:57:08.810Z,1.00
2022-12-12T14:59:39.690Z,0.90
2022-12-12T15:02:21.003Z,0.90
2022-12-12T15:04:53.075Z,0.90
2022-12-12T15:07:26.137Z,0.90
2022-12-12T15:09:54.631Z,0.70
2022-12-12T15:12:26.612Z,0.60
2022-12-12T15:14:57.136Z,0.70
2022-12-12T15:17:30.062Z,0.80
2022-12-12T15:20:01.226Z,0.80
2022-12-12T15:22:31.767Z,0.80
2022-12-12T15:25:02.179Z,0.80
2022-12-12T15:27:32.928Z,0.80
2022-12-12T15:30:03.435Z,0.70
2022-12-12T15:32:33.299Z,0.70
2022-12-12T15:35:04.584Z,0.60
2022-12-12T15:37:34.995Z,0.50
2022-12-12T15:40:20.112Z,0.50
2022-12-12T15:42:53.438Z,0.40
2022-12-12T15:45:25.812Z,0.30
2022-12-12T15:47:56.685Z,0.10
2022-12-12T15:50:29.575Z,0.10
2022-12-12T15:53:06.926Z,-0.10
2022-12-12T15:55:36.509Z,-0.30
2022-12-12T15:58:05.121Z,-0.50
2022-12-12T16:00:37.342Z,-0.70
2022-12-12T16:03:22.622Z,-0.80
2022-12-12T16:06:16.704Z,-1.10
2022-12-12T16:08:49.714Z,-1.00
2022-12-12T16:11:42.902Z,-1.10
2022-12-12T16:14:39.115Z,-1.00
2022-12-12T16:17:11.631Z,-1.10
2022-12-12T16:19:43.812Z,-1.00
2022-12-12T16:22:22.018Z,-1.00
2022-12-12T16:24:53.104Z,-1.10
2022-12-12T16:27:21.930Z,-1.20
2022-12-12T16:29:50.273Z,-1.00
2022-12-12T16:32:21.340Z,-0.80
2022-12-12T16:34:51.039Z,-0.70
2022-12-12T16:37:19.969Z,-1.00
2022-12-12T16:39:48.498Z,-1.20
2022-12-12T16:42:19.906Z,-1.50
2022-12-12T16:44:48.513Z,-1.50
2022-12-12T16:47:18.234Z,-1.50
2022-12-12T16:49:46.971Z,-1.50
2022-12-12T16:52:18.779Z,-1.30
2022-12-12T16:54:53.158Z,-1.40
2022-12-12T16:57:23.118Z,-1.50
2022-12-12T16:59:51.550Z,-1.60
2022-12-12T17:02:21.722Z,-1.70
2022-12-12T17:04:50.848Z,-2.00
2022-12-12T17:07:21.026Z,-1.80
2022-12-12T17:09:49.369Z,-2.00
2022-12-12T17:12:17.834Z,-2.10
2022-12-12T17:14:46.413Z,-2.20
2022-12-12T17:17:14.877Z,-1.90
2022-12-12T17:19:43.310Z,-1.90
2022-12-12T17:22:11.712Z,-2.10
2022-12-12T17:24:41.720Z,-2.00
2022-12-12T17:27:10.042Z,-1.80
2022-12-12T17:29:38.479Z,-1.80
2022-12-12T17:32:07.148Z,-1.60
2022-12-12T17:34:35.593Z,-1.90
2022-12-12T17:37:04.056Z,-1.80
2022-12-12T17:39:32.573Z,-1.80
2022-12-12T17:42:02.976Z,-1.50
2022-12-12T17:44:31.608Z,-1.60
2022-12-12T17:47:01.256Z,-1.50
2022-12-12T17:49:29.681Z,-1.40
2022-12-12T17:51:58.137Z,-1.40
2022-12-12T17:54:26.465Z,-1.60
2022-12-12T17:56:55.283Z,-1.50
2022-12-12T17:59:25.106Z,-1.50
2022-12-12T18:01:54.176Z,-1.30
2022-12-12T18:04:27.954Z,-1.10
2022-12-12T18:06:57.083Z,-0.90
2022-12-12T18:09:26.177Z,-0.80
2022-12-12T18:11:54.524Z,-0.70
2022-12-12T18:14:24.387Z,-0.60
2022-12-12T18:16:53.376Z,-0.50
2022-12-12T18:19:23.821Z,-0.50
2022-12-12T18:22:01.438Z,-0.50
2022-12-12T18:24:32.490Z,-0.60
2022-12-12T18:27:03.755Z,-0.60
2022-12-12T18:29:33.605Z,-0.60
2022-12-12T18:32:02.113Z,-0.60
2022-12-12T18:34:31.075Z,-0.60
2022-12-12T18:36:59.455Z,-0.60
2022-12-12T18:39:27.787Z,-0.60
2022-12-12T18:41:56.159Z,-0.60
2022-12-12T18:44:24.589Z,-0.60
2022-12-12T18:46:54.305Z,-0.60
2022-12-12T18:49:22.840Z,-0.60
2022-12-12T18:51:51.271Z,-0.70
2022-12-12T18:54:19.708Z,-0.80
2022-12-12T18:56:48.748Z,-0.80
2022-12-12T18:59:17.576Z,-0.80
2022-12-12T19:01:48.152Z,-0.90
2022-12-12T19:04:23.265Z,-1.00
2022-12-12T19:06:52.421Z,-1.00
2022-12-12T19:09:21.652Z,-1.20
2022-12-12T19:11:50.318Z,-1.30
2022-12-12T19:14:18.913Z,-1.50
2022-12-12T19:16:47.340Z,-1.70
2022-12-12T19:19:17.623Z,-1.80
2022-12-12T19:21:46.427Z,-1.90
2022-12-12T19:24:15.082Z,-2.00
2022-12-12T19:26:45.062Z,-2.00
2022-12-12T19:29:15.636Z,-2.10
2022-12-12T19:31:44.895Z,-2.20
2022-12-12T19:34:14.981Z,-2.20
2022-12-12T19:36:46.149Z,-2.30
2022-12-12T19:39:14.538Z,-2.10
2022-12-12T19:41:43.364Z,-1.90
2022-12-12T19:44:13.115Z,-1.70
2022-12-12T19:46:43.638Z,-1.60
2022-12-12T19:49:13.786Z,-1.70
2022-12-12T19:51:44.827Z,-1.70
2022-12-12T19:54:17.565Z,-1.70
2022-12-12T19:56:46.943Z,-1.40
2022-12-12T19:59:17.177Z,-1.40
2022-12-12T20:01:46.516Z,-1.30
2022-12-12T20:04:19.612Z,-1.20
2022-12-12T20:06:49.407Z,-1.10
2022-12-12T20:09:22.166Z,-1.00
2022-12-12T20:11:51.220Z,-1.00
2022-12-12T20:14:22.136Z,-1.10
2022-12-12T20:16:51.064Z,-1.00
2022-12-12T20:19:21.093Z,-1.00
2022-12-12T20:22:05.891Z,-1.10
2022-12-12T20:24:37.407Z,-1.00
2022-12-12T20:27:06.727Z,-1.00
2022-12-12T20:29:35.983Z,-1.00
2022-12-12T20:32:04.754Z,-1.00
2022-12-12T20:34:33.076Z,-1.10
2022-12-12T20:37:01.361Z,-1.20
2022-12-12T20:39:29.770Z,-1.10
2022-12-12T20:41:59.682Z,-1.20
2022-12-12T20:44:29.295Z,-1.30
2022-12-12T20:46:58.840Z,-1.30
2022-12-12T20:49:29.043Z,-1.40
2022-12-12T20:51:58.593Z,-1.60
2022-12-12T20:54:28.320Z,-1.80
2022-12-12T20:57:00.546Z,-2.00
2022-12-12T20:59:28.832Z,-2.10
2022-12-12T21:01:57.238Z,-2.40
2022-12-12T21:04:26.014Z,-2.50
2022-12-12T21:06:54.288Z,-2.40
2022-12-12T21:09:27.020Z,-2.50
2022-12-12T21:11:58.015Z,-2.40
2022-12-12T21:14:30.995Z,-2.60
2022-12-12T21:17:00.734Z,-2.80
2022-12-12T21:19:30.064Z,-2.80
2022-12-12T21:21:58.450Z,-2.90
2022-12-12T21:24:26.958Z,-2.90
2022-12-12T21:26:58.083Z,-3.00
2022-12-12T21:29:27.815Z,-2.80
2022-12-12T21:31:56.606Z,-2.70
2022-12-12T21:34:24.992Z,-2.40
2022-12-12T21:36:54.409Z,-2.30
2022-12-12T21:39:26.867Z,-2.10
2022-12-12T21:41:55.669Z,-2.20
2022-12-12T21:44:24.255Z,-2.30
2022-12-12T21:46:54.192Z,-2.10
2022-12-12T21:49:31.074Z,-1.90
2022-12-12T21:52:02.389Z,-1.70
2022-12-12T21:54:31.865Z,-1.60
2022-12-12T21:57:04.013Z,-1.60
2022-12-12T21:59:32.608Z,-1.80
2022-12-12T22:02:02.350Z,-2.00
2022-12-12T22:04:31.999Z,-2.30
2022-12-12T22:07:00.387Z,-2.50
2022-12-12T22:09:28.767Z,-2.60
2022-12-12T22:12:04.044Z,-2.50
2022-12-12T22:14:34.154Z,-2.50
2022-12-12T22:17:04.213Z,-2.30
2022-12-12T22:19:32.548Z,-2.40
2022-12-12T22:22:00.974Z,-2.20
2022-12-12T22:24:29.696Z,-2.30
2022-12-12T22:26:58.216Z,-2.60
2022-12-12T22:29:26.496Z,-2.90
2022-12-12T22:31:54.834Z,-2.90
2022-12-12T22:34:26.158Z,-2.80
2022-12-12T22:36:55.912Z,-2.90
2022-12-12T22:39:25.955Z,-3.10
2022-12-12T22:41:55.625Z,-3.20
2022-12-12T22:44:25.392Z,-3.20
2022-12-12T22:46:55.350Z,-3.10
2022-12-12T22:49:26.895Z,-2.90
2022-12-12T22:51:56.506Z,-2.60
2022-12-12T22:54:25.416Z,-2.60
2022-12-12T22:56:55.439Z,-2.40
2022-12-12T22:59:23.805Z,-2.60
2022-12-12T23:01:52.084Z,-2.80
2022-12-12T23:04:20.478Z,-2.70
2022-12-12T23:06:50.167Z,-2.40
2022-12-12T23:09:21.076Z,-2.40
2022-12-12T23:11:49.366Z,-2.40
2022-12-12T23:14:21.601Z,-2.40
2022-12-12T23:16:51.206Z,-2.20
2022-12-12T23:19:21.764Z,-2.10
2022-12-12T23:21:51.617Z,-2.10
2022-12-12T23:24:19.886Z,-2.30
2022-12-12T23:26:51.097Z,-2.20
2022-12-12T23:29:20.323Z,-2.30
2022-12-12T23:31:49.645Z,-2.30
2022-12-12T23:34:22.819Z,-2.30
2022-12-12T23:37:01.287Z,-2.50
2022-12-12T23:39:29.760Z,-2.30
2022-12-12T23:41:59.412Z,-2.40
2022-12-12T23:44:27.633Z,-2.50
2022-12-12T23:46:58.217Z,-2.50
2022-12-12T23:49:27.553Z,-2.60
2022-12-12T23:51:58.901Z,-2.80
2022-12-12T23:54:31.984Z,-3.00
2022-12-12T23:57:00.377Z,-3.10
2022-12-12T23:59:29.536Z,-3.10
